sensor_id;sensor_type;location;lat;lon;timestamp;P1;durP1;ratioP1;P2;durP2;ratioP2
12832;SDS011;6483;51.310;4.462;2022-07-06T00:00:19;4.63;;;2.60;;
12832;SDS011;6483;51.310;4.462;2022-07-06T00:02:48;4.17;;;2.73;;
12832;SDS011;6483;51.310;4.462;2022-07-06T00:05:13;3.77;;;2.60;;
12832;SDS011;6483;51.310;4.462;2022-07-06T00:07:39;4.80;;;2.40;;
12832;SDS011;6483;51.310;4.462;2022-07-06T00:10:08;4.83;;;2.97;;
12832;SDS011;6483;51.310;4.462;2022-07-06T00:12:37;3.40;;;2.70;;
12832;SDS011;6483;51.310;4.462;2022-07-06T00:15:04;4.00;;;2.57;;
12832;SDS011;6483;51.310;4.462;2022-07-06T00:17:30;5.80;;;2.90;;
12832;SDS011;6483;51.310;4.462;2022-07-06T00:19:56;4.63;;;2.90;;
12832;SDS011;6483;51.310;4.462;2022-07-06T00:22:22;3.40;;;2.60;;
12832;SDS011;6483;51.310;4.462;2022-07-06T00:24:48;4.77;;;2.80;;
12832;SDS011;6483;51.310;4.462;2022-07-06T00:27:13;5.10;;;3.07;;
12832;SDS011;6483;51.310;4.462;2022-07-06T00:29:42;4.43;;;2.70;;
12832;SDS011;6483;51.310;4.462;2022-07-06T00:32:12;5.30;;;2.87;;
12832;SDS011;6483;51.310;4.462;2022-07-06T00:34:40;4.30;;;2.93;;
12832;SDS011;6483;51.310;4.462;2022-07-06T00:37:06;3.83;;;3.20;;
12832;SDS011;6483;51.310;4.462;2022-07-06T00:39:33;6.90;;;2.97;;
12832;SDS011;6483;51.310;4.462;2022-07-06T00:41:59;5.43;;;3.03;;
12832;SDS011;6483;51.310;4.462;2022-07-06T00:44:28;4.00;;;2.80;;
12832;SDS011;6483;51.310;4.462;2022-07-06T00:46:54;6.63;;;3.13;;
12832;SDS011;6483;51.310;4.462;2022-07-06T00:49:19;3.63;;;3.07;;
12832;SDS011;6483;51.310;4.462;2022-07-06T00:52:05;5.60;;;3.20;;
12832;SDS011;6483;51.310;4.462;2022-07-06T00:54:31;3.40;;;2.90;;
12832;SDS011;6483;51.310;4.462;2022-07-06T00:56:57;5.97;;;3.10;;
12832;SDS011;6483;51.310;4.462;2022-07-06T00:59:26;5.60;;;3.13;;
12832;SDS011;6483;51.310;4.462;2022-07-06T01:01:53;6.00;;;3.20;;
12832;SDS011;6483;51.310;4.462;2022-07-06T01:04:19;3.70;;;3.17;;
12832;SDS011;6483;51.310;4.462;2022-07-06T01:06:48;7.65;;;3.30;;
12832;SDS011;6483;51.310;4.462;2022-07-06T01:09:13;3.27;;;2.90;;
12832;SDS011;6483;51.310;4.462;2022-07-06T01:11:45;3.40;;;3.07;;
12832;SDS011;6483;51.310;4.462;2022-07-06T01:14:12;3.70;;;3.00;;
12832;SDS011;6483;51.310;4.462;2022-07-06T01:16:38;3.80;;;3.13;;
12832;SDS011;6483;51.310;4.462;2022-07-06T01:19:04;4.50;;;3.10;;
12832;SDS011;6483;51.310;4.462;2022-07-06T01:21:32;3.03;;;2.70;;
12832;SDS011;6483;51.310;4.462;2022-07-06T01:24:08;4.53;;;2.90;;
12832;SDS011;6483;51.310;4.462;2022-07-06T01:26:35;3.30;;;2.53;;
12832;SDS011;6483;51.310;4.462;2022-07-06T01:29:02;3.65;;;3.08;;
12832;SDS011;6483;51.310;4.462;2022-07-06T01:31:28;3.43;;;2.80;;
12832;SDS011;6483;51.310;4.462;2022-07-06T01:33:55;4.90;;;2.67;;
12832;SDS011;6483;51.310;4.462;2022-07-06T01:36:26;2.60;;;2.40;;
12832;SDS011;6483;51.310;4.462;2022-07-06T01:38:53;2.20;;;2.08;;
12832;SDS011;6483;51.310;4.462;2022-07-06T01:41:25;2.47;;;2.13;;
12832;SDS011;6483;51.310;4.462;2022-07-06T01:43:53;2.67;;;2.47;;
12832;SDS011;6483;51.310;4.462;2022-07-06T01:46:19;3.30;;;2.37;;
12832;SDS011;6483;51.310;4.462;2022-07-06T01:48:45;2.70;;;2.27;;
12832;SDS011;6483;51.310;4.462;2022-07-06T01:51:11;3.17;;;2.93;;
12832;SDS011;6483;51.310;4.462;2022-07-06T01:53:40;2.53;;;2.17;;
12832;SDS011;6483;51.310;4.462;2022-07-06T01:56:09;2.37;;;2.27;;
12832;SDS011;6483;51.310;4.462;2022-07-06T01:58:37;2.57;;;2.00;;
12832;SDS011;6483;51.310;4.462;2022-07-06T02:01:09;2.53;;;2.13;;
12832;SDS011;6483;51.310;4.462;2022-07-06T02:03:36;6.13;;;2.90;;
12832;SDS011;6483;51.310;4.462;2022-07-06T02:06:02;4.40;;;2.55;;
12832;SDS011;6483;51.310;4.462;2022-07-06T02:08:29;3.00;;;2.20;;
12832;SDS011;6483;51.310;4.462;2022-07-06T02:10:58;4.73;;;2.47;;
12832;SDS011;6483;51.310;4.462;2022-07-06T02:13:24;2.17;;;2.07;;
12832;SDS011;6483;51.310;4.462;2022-07-06T02:15:50;3.93;;;2.90;;
12832;SDS011;6483;51.310;4.462;2022-07-06T02:18:15;4.20;;;2.60;;
12832;SDS011;6483;51.310;4.462;2022-07-06T02:20:41;2.50;;;2.00;;
12832;SDS011;6483;51.310;4.462;2022-07-06T02:23:08;3.42;;;2.22;;
12832;SDS011;6483;51.310;4.462;2022-07-06T02:25:34;2.30;;;2.10;;
12832;SDS011;6483;51.310;4.462;2022-07-06T02:28:03;2.77;;;2.13;;
12832;SDS011;6483;51.310;4.462;2022-07-06T02:30:29;3.35;;;2.05;;
12832;SDS011;6483;51.310;4.462;2022-07-06T02:32:57;4.05;;;2.22;;
12832;SDS011;6483;51.310;4.462;2022-07-06T02:35:23;3.27;;;2.30;;
12832;SDS011;6483;51.310;4.462;2022-07-06T02:37:49;2.60;;;2.28;;
12832;SDS011;6483;51.310;4.462;2022-07-06T02:40:15;3.50;;;2.40;;
12832;SDS011;6483;51.310;4.462;2022-07-06T02:42:44;4.03;;;2.20;;
12832;SDS011;6483;51.310;4.462;2022-07-06T02:45:10;2.20;;;1.92;;
12832;SDS011;6483;51.310;4.462;2022-07-06T02:47:35;3.23;;;2.07;;
12832;SDS011;6483;51.310;4.462;2022-07-06T02:50:04;4.90;;;2.17;;
12832;SDS011;6483;51.310;4.462;2022-07-06T02:52:30;2.37;;;1.87;;
12832;SDS011;6483;51.310;4.462;2022-07-06T02:54:56;2.30;;;2.10;;
12832;SDS011;6483;51.310;4.462;2022-07-06T02:57:22;3.17;;;2.10;;
12832;SDS011;6483;51.310;4.462;2022-07-06T02:59:47;5.18;;;2.17;;
12832;SDS011;6483;51.310;4.462;2022-07-06T03:02:17;2.78;;;2.20;;
12832;SDS011;6483;51.310;4.462;2022-07-06T03:04:43;2.88;;;2.00;;
12832;SDS011;6483;51.310;4.462;2022-07-06T03:07:09;2.38;;;2.13;;
12832;SDS011;6483;51.310;4.462;2022-07-06T03:09:41;2.38;;;2.17;;
12832;SDS011;6483;51.310;4.462;2022-07-06T03:12:07;2.25;;;1.73;;
12832;SDS011;6483;51.310;4.462;2022-07-06T03:14:34;5.00;;;2.07;;
12832;SDS011;6483;51.310;4.462;2022-07-06T03:17:03;2.22;;;1.90;;
12832;SDS011;6483;51.310;4.462;2022-07-06T03:19:29;2.75;;;1.98;;
12832;SDS011;6483;51.310;4.462;2022-07-06T03:21:57;2.33;;;2.00;;
12832;SDS011;6483;51.310;4.462;2022-07-06T03:24:23;2.05;;;1.70;;
12832;SDS011;6483;51.310;4.462;2022-07-06T03:26:51;2.00;;;1.90;;
12832;SDS011;6483;51.310;4.462;2022-07-06T03:29:17;2.70;;;2.00;;
12832;SDS011;6483;51.310;4.462;2022-07-06T03:31:43;2.87;;;1.80;;
12832;SDS011;6483;51.310;4.462;2022-07-06T03:34:09;3.00;;;1.92;;
12832;SDS011;6483;51.310;4.462;2022-07-06T03:36:35;2.88;;;2.30;;
12832;SDS011;6483;51.310;4.462;2022-07-06T03:39:00;2.30;;;2.00;;
12832;SDS011;6483;51.310;4.462;2022-07-06T03:41:29;3.47;;;2.13;;
12832;SDS011;6483;51.310;4.462;2022-07-06T03:43:56;2.07;;;1.97;;
12832;SDS011;6483;51.310;4.462;2022-07-06T03:46:22;3.33;;;2.00;;
12832;SDS011;6483;51.310;4.462;2022-07-06T03:48:48;3.03;;;2.10;;
12832;SDS011;6483;51.310;4.462;2022-07-06T03:51:14;2.13;;;1.98;;
12832;SDS011;6483;51.310;4.462;2022-07-06T03:53:39;2.13;;;1.93;;
12832;SDS011;6483;51.310;4.462;2022-07-06T03:56:05;2.10;;;1.88;;
12832;SDS011;6483;51.310;4.462;2022-07-06T03:58:49;2.00;;;1.90;;
12832;SDS011;6483;51.310;4.462;2022-07-06T04:01:15;2.40;;;2.20;;
12832;SDS011;6483;51.310;4.462;2022-07-06T04:03:40;4.10;;;2.13;;
12832;SDS011;6483;51.310;4.462;2022-07-06T04:06:10;2.42;;;2.00;;
12832;SDS011;6483;51.310;4.462;2022-07-06T04:08:35;2.50;;;2.03;;
12832;SDS011;6483;51.310;4.462;2022-07-06T04:11:01;2.53;;;2.20;;
12832;SDS011;6483;51.310;4.462;2022-07-06T04:13:28;3.70;;;2.40;;
12832;SDS011;6483;51.310;4.462;2022-07-06T04:15:53;2.88;;;1.83;;
12832;SDS011;6483;51.310;4.462;2022-07-06T04:18:19;2.05;;;1.77;;
12832;SDS011;6483;51.310;4.462;2022-07-06T04:20:45;4.60;;;2.30;;
12832;SDS011;6483;51.310;4.462;2022-07-06T04:23:11;1.98;;;1.88;;
12832;SDS011;6483;51.310;4.462;2022-07-06T04:25:36;2.08;;;1.88;;
12832;SDS011;6483;51.310;4.462;2022-07-06T04:28:02;5.03;;;2.10;;
12832;SDS011;6483;51.310;4.462;2022-07-06T04:30:29;3.15;;;1.88;;
12832;SDS011;6483;51.310;4.462;2022-07-06T04:32:55;2.83;;;1.90;;
12832;SDS011;6483;51.310;4.462;2022-07-06T04:35:21;3.63;;;2.00;;
12832;SDS011;6483;51.310;4.462;2022-07-06T04:37:47;2.35;;;2.08;;
12832;SDS011;6483;51.310;4.462;2022-07-06T04:40:13;3.47;;;2.30;;
12832;SDS011;6483;51.310;4.462;2022-07-06T04:42:40;2.25;;;2.10;;
12832;SDS011;6483;51.310;4.462;2022-07-06T04:45:06;4.78;;;2.03;;
12832;SDS011;6483;51.310;4.462;2022-07-06T04:47:32;3.05;;;1.90;;
12832;SDS011;6483;51.310;4.462;2022-07-06T04:49:58;2.72;;;2.10;;
12832;SDS011;6483;51.310;4.462;2022-07-06T04:52:24;2.83;;;1.88;;
12832;SDS011;6483;51.310;4.462;2022-07-06T04:54:53;3.78;;;2.10;;
12832;SDS011;6483;51.310;4.462;2022-07-06T04:57:22;2.50;;;1.92;;
12832;SDS011;6483;51.310;4.462;2022-07-06T04:59:53;2.65;;;2.05;;
12832;SDS011;6483;51.310;4.462;2022-07-06T05:02:19;2.50;;;2.10;;
12832;SDS011;6483;51.310;4.462;2022-07-06T05:04:44;3.97;;;2.40;;
12832;SDS011;6483;51.310;4.462;2022-07-06T05:07:13;2.97;;;2.10;;
12832;SDS011;6483;51.310;4.462;2022-07-06T05:09:40;2.35;;;2.15;;
12832;SDS011;6483;51.310;4.462;2022-07-06T05:12:06;3.72;;;2.33;;
12832;SDS011;6483;51.310;4.462;2022-07-06T05:14:32;2.17;;;2.00;;
12832;SDS011;6483;51.310;4.462;2022-07-06T05:17:00;6.15;;;2.20;;
12832;SDS011;6483;51.310;4.462;2022-07-06T05:19:29;4.15;;;2.58;;
12832;SDS011;6483;51.310;4.462;2022-07-06T05:21:57;4.00;;;2.30;;
12832;SDS011;6483;51.310;4.462;2022-07-06T05:24:23;2.33;;;2.13;;
12832;SDS011;6483;51.310;4.462;2022-07-06T05:26:49;3.13;;;2.20;;
12832;SDS011;6483;51.310;4.462;2022-07-06T05:29:18;3.42;;;2.13;;
12832;SDS011;6483;51.310;4.462;2022-07-06T05:31:43;2.60;;;2.38;;
12832;SDS011;6483;51.310;4.462;2022-07-06T05:34:12;2.47;;;1.80;;
12832;SDS011;6483;51.310;4.462;2022-07-06T05:36:39;2.17;;;1.92;;
12832;SDS011;6483;51.310;4.462;2022-07-06T05:39:04;3.20;;;2.33;;
12832;SDS011;6483;51.310;4.462;2022-07-06T05:41:30;2.45;;;2.10;;
12832;SDS011;6483;51.310;4.462;2022-07-06T05:43:55;2.58;;;2.10;;
12832;SDS011;6483;51.310;4.462;2022-07-06T05:46:24;2.70;;;2.28;;
12832;SDS011;6483;51.310;4.462;2022-07-06T05:48:51;2.33;;;2.13;;
12832;SDS011;6483;51.310;4.462;2022-07-06T05:51:35;4.38;;;2.20;;
12832;SDS011;6483;51.310;4.462;2022-07-06T05:54:01;3.85;;;2.20;;
12832;SDS011;6483;51.310;4.462;2022-07-06T05:56:27;3.45;;;2.13;;
12832;SDS011;6483;51.310;4.462;2022-07-06T05:58:52;3.42;;;3.00;;
12832;SDS011;6483;51.310;4.462;2022-07-06T06:01:18;3.22;;;2.92;;
12832;SDS011;6483;51.310;4.462;2022-07-06T06:03:43;4.72;;;3.00;;
12832;SDS011;6483;51.310;4.462;2022-07-06T06:06:09;3.47;;;2.70;;
12832;SDS011;6483;51.310;4.462;2022-07-06T06:08:35;3.30;;;3.00;;
12832;SDS011;6483;51.310;4.462;2022-07-06T06:11:01;5.53;;;2.53;;
12832;SDS011;6483;51.310;4.462;2022-07-06T06:13:27;5.75;;;3.03;;
12832;SDS011;6483;51.310;4.462;2022-07-06T06:15:53;5.28;;;2.42;;
12832;SDS011;6483;51.310;4.462;2022-07-06T06:18:18;5.18;;;2.22;;
12832;SDS011;6483;51.310;4.462;2022-07-06T06:20:45;7.93;;;2.38;;
12832;SDS011;6483;51.310;4.462;2022-07-06T06:23:11;3.60;;;2.13;;
12832;SDS011;6483;51.310;4.462;2022-07-06T06:25:39;4.25;;;1.75;;
12832;SDS011;6483;51.310;4.462;2022-07-06T06:28:05;3.53;;;2.10;;
12832;SDS011;6483;51.310;4.462;2022-07-06T06:30:32;4.75;;;1.92;;
12832;SDS011;6483;51.310;4.462;2022-07-06T06:35:33;2.95;;;1.60;;
12832;SDS011;6483;51.310;4.462;2022-07-06T06:38:02;6.70;;;2.17;;
12832;SDS011;6483;51.310;4.462;2022-07-06T06:40:31;4.13;;;1.77;;
12832;SDS011;6483;51.310;4.462;2022-07-06T06:42:56;6.22;;;2.85;;
12832;SDS011;6483;51.310;4.462;2022-07-06T06:45:25;5.72;;;2.13;;
12832;SDS011;6483;51.310;4.462;2022-07-06T06:47:51;6.30;;;2.40;;
12832;SDS011;6483;51.310;4.462;2022-07-06T06:50:17;3.42;;;2.45;;
12832;SDS011;6483;51.310;4.462;2022-07-06T06:52:43;5.70;;;2.25;;
12832;SDS011;6483;51.310;4.462;2022-07-06T06:55:08;7.35;;;2.58;;
12832;SDS011;6483;51.310;4.462;2022-07-06T06:57:34;4.22;;;2.35;;
12832;SDS011;6483;51.310;4.462;2022-07-06T07:00:00;5.68;;;1.83;;
12832;SDS011;6483;51.310;4.462;2022-07-06T07:02:28;3.08;;;1.50;;
12832;SDS011;6483;51.310;4.462;2022-07-06T07:04:53;1.80;;;1.02;;
12832;SDS011;6483;51.310;4.462;2022-07-06T07:07:19;5.10;;;1.30;;
12832;SDS011;6483;51.310;4.462;2022-07-06T07:09:48;4.40;;;1.40;;
12832;SDS011;6483;51.310;4.462;2022-07-06T07:12:13;1.45;;;1.10;;
12832;SDS011;6483;51.310;4.462;2022-07-06T07:14:42;2.15;;;0.93;;
12832;SDS011;6483;51.310;4.462;2022-07-06T07:17:08;3.42;;;1.00;;
12832;SDS011;6483;51.310;4.462;2022-07-06T07:19:33;2.58;;;0.70;;
12832;SDS011;6483;51.310;4.462;2022-07-06T07:22:04;1.83;;;0.90;;
12832;SDS011;6483;51.310;4.462;2022-07-06T07:24:30;1.45;;;0.68;;
12832;SDS011;6483;51.310;4.462;2022-07-06T07:26:56;0.93;;;0.77;;
12832;SDS011;6483;51.310;4.462;2022-07-06T07:29:22;1.05;;;0.77;;
12832;SDS011;6483;51.310;4.462;2022-07-06T07:31:48;1.08;;;0.50;;
12832;SDS011;6483;51.310;4.462;2022-07-06T07:34:14;2.65;;;0.70;;
12832;SDS011;6483;51.310;4.462;2022-07-06T07:36:39;2.83;;;0.70;;
12832;SDS011;6483;51.310;4.462;2022-07-06T07:39:08;0.95;;;0.70;;
12832;SDS011;6483;51.310;4.462;2022-07-06T07:41:33;5.47;;;1.25;;
12832;SDS011;6483;51.310;4.462;2022-07-06T07:44:02;1.55;;;0.73;;
12832;SDS011;6483;51.310;4.462;2022-07-06T07:46:28;1.38;;;0.60;;
12832;SDS011;6483;51.310;4.462;2022-07-06T07:48:54;1.40;;;0.60;;
12832;SDS011;6483;51.310;4.462;2022-07-06T07:51:19;0.57;;;0.50;;
12832;SDS011;6483;51.310;4.462;2022-07-06T07:53:45;1.95;;;0.60;;
12832;SDS011;6483;51.310;4.462;2022-07-06T07:56:13;0.85;;;0.50;;
12832;SDS011;6483;51.310;4.462;2022-07-06T07:58:39;0.82;;;0.50;;
12832;SDS011;6483;51.310;4.462;2022-07-06T08:01:05;3.05;;;1.05;;
12832;SDS011;6483;51.310;4.462;2022-07-06T08:03:33;2.13;;;0.65;;
12832;SDS011;6483;51.310;4.462;2022-07-06T08:05:59;1.00;;;0.50;;
12832;SDS011;6483;51.310;4.462;2022-07-06T08:08:27;2.17;;;0.60;;
12832;SDS011;6483;51.310;4.462;2022-07-06T08:10:56;2.25;;;0.63;;
12832;SDS011;6483;51.310;4.462;2022-07-06T08:13:22;3.13;;;0.80;;
12832;SDS011;6483;51.310;4.462;2022-07-06T08:15:53;0.57;;;0.40;;
12832;SDS011;6483;51.310;4.462;2022-07-06T08:18:19;2.03;;;0.68;;
12832;SDS011;6483;51.310;4.462;2022-07-06T08:20:45;0.90;;;0.57;;
12832;SDS011;6483;51.310;4.462;2022-07-06T08:23:14;1.88;;;0.50;;
12832;SDS011;6483;51.310;4.462;2022-07-06T08:25:40;1.08;;;0.60;;
12832;SDS011;6483;51.310;4.462;2022-07-06T08:28:06;2.13;;;0.70;;
12832;SDS011;6483;51.310;4.462;2022-07-06T08:30:31;1.88;;;0.60;;
12832;SDS011;6483;51.310;4.462;2022-07-06T08:32:59;2.13;;;0.68;;
12832;SDS011;6483;51.310;4.462;2022-07-06T08:35:25;1.27;;;0.43;;
12832;SDS011;6483;51.310;4.462;2022-07-06T08:37:54;1.40;;;0.40;;
12832;SDS011;6483;51.310;4.462;2022-07-06T08:40:22;0.45;;;0.30;;
12832;SDS011;6483;51.310;4.462;2022-07-06T08:42:53;1.30;;;0.60;;
12832;SDS011;6483;51.310;4.462;2022-07-06T08:45:19;1.83;;;0.70;;
12832;SDS011;6483;51.310;4.462;2022-07-06T08:47:45;2.97;;;0.60;;
12832;SDS011;6483;51.310;4.462;2022-07-06T08:50:14;2.13;;;0.80;;
12832;SDS011;6483;51.310;4.462;2022-07-06T08:52:41;2.72;;;0.80;;
12832;SDS011;6483;51.310;4.462;2022-07-06T08:55:10;1.15;;;0.60;;
12832;SDS011;6483;51.310;4.462;2022-07-06T08:57:38;1.75;;;0.63;;
12832;SDS011;6483;51.310;4.462;2022-07-06T09:00:10;2.47;;;0.90;;
12832;SDS011;6483;51.310;4.462;2022-07-06T09:02:37;2.35;;;0.70;;
12832;SDS011;6483;51.310;4.462;2022-07-06T09:05:08;2.15;;;0.60;;
12832;SDS011;6483;51.310;4.462;2022-07-06T09:07:53;2.42;;;0.47;;
12832;SDS011;6483;51.310;4.462;2022-07-06T09:10:21;0.82;;;0.50;;
12832;SDS011;6483;51.310;4.462;2022-07-06T09:12:47;4.15;;;0.70;;
12832;SDS011;6483;51.310;4.462;2022-07-06T09:15:13;1.25;;;0.60;;
12832;SDS011;6483;51.310;4.462;2022-07-06T09:17:41;4.97;;;0.75;;
12832;SDS011;6483;51.310;4.462;2022-07-06T09:20:11;1.35;;;0.52;;
12832;SDS011;6483;51.310;4.462;2022-07-06T09:22:38;1.77;;;0.90;;
12832;SDS011;6483;51.310;4.462;2022-07-06T09:25:05;1.50;;;0.80;;
12832;SDS011;6483;51.310;4.462;2022-07-06T09:27:42;3.85;;;0.63;;
12832;SDS011;6483;51.310;4.462;2022-07-06T09:30:14;4.25;;;0.70;;
12832;SDS011;6483;51.310;4.462;2022-07-06T09:32:45;2.47;;;0.77;;
12832;SDS011;6483;51.310;4.462;2022-07-06T09:38:11;2.83;;;0.77;;
12832;SDS011;6483;51.310;4.462;2022-07-06T09:40:41;0.88;;;0.60;;
12832;SDS011;6483;51.310;4.462;2022-07-06T09:43:11;1.02;;;0.55;;
12832;SDS011;6483;51.310;4.462;2022-07-06T09:45:43;2.55;;;0.50;;
12832;SDS011;6483;51.310;4.462;2022-07-06T09:48:23;4.03;;;0.77;;
12832;SDS011;6483;51.310;4.462;2022-07-06T09:51:02;1.85;;;0.70;;
12832;SDS011;6483;51.310;4.462;2022-07-06T09:53:28;1.48;;;0.70;;
12832;SDS011;6483;51.310;4.462;2022-07-06T09:55:54;1.50;;;0.60;;
12832;SDS011;6483;51.310;4.462;2022-07-06T09:58:23;2.63;;;0.57;;
12832;SDS011;6483;51.310;4.462;2022-07-06T10:00:50;2.30;;;0.75;;
12832;SDS011;6483;51.310;4.462;2022-07-06T10:03:19;1.08;;;0.65;;
12832;SDS011;6483;51.310;4.462;2022-07-06T10:05:45;1.00;;;0.40;;
12832;SDS011;6483;51.310;4.462;2022-07-06T10:08:14;3.75;;;0.65;;
12832;SDS011;6483;51.310;4.462;2022-07-06T10:10:41;1.63;;;0.50;;
12832;SDS011;6483;51.310;4.462;2022-07-06T10:13:07;2.10;;;0.57;;
12832;SDS011;6483;51.310;4.462;2022-07-06T10:15:35;0.95;;;0.63;;
12832;SDS011;6483;51.310;4.462;2022-07-06T10:18:07;1.58;;;0.63;;
12832;SDS011;6483;51.310;4.462;2022-07-06T10:20:34;3.80;;;0.57;;
12832;SDS011;6483;51.310;4.462;2022-07-06T10:23:02;1.20;;;0.40;;
12832;SDS011;6483;51.310;4.462;2022-07-06T10:25:28;2.38;;;0.98;;
12832;SDS011;6483;51.310;4.462;2022-07-06T10:27:55;1.80;;;0.60;;
12832;SDS011;6483;51.310;4.462;2022-07-06T10:30:21;0.30;;;0.30;;
12832;SDS011;6483;51.310;4.462;2022-07-06T10:32:50;2.72;;;0.73;;
12832;SDS011;6483;51.310;4.462;2022-07-06T10:35:19;2.13;;;0.65;;
12832;SDS011;6483;51.310;4.462;2022-07-06T10:37:46;3.45;;;0.73;;
12832;SDS011;6483;51.310;4.462;2022-07-06T10:40:34;1.40;;;0.77;;
12832;SDS011;6483;51.310;4.462;2022-07-06T10:43:23;2.90;;;0.70;;
12832;SDS011;6483;51.310;4.462;2022-07-06T10:45:50;1.13;;;0.70;;
12832;SDS011;6483;51.310;4.462;2022-07-06T10:48:20;2.47;;;0.88;;
12832;SDS011;6483;51.310;4.462;2022-07-06T10:53:17;1.20;;;0.45;;
12832;SDS011;6483;51.310;4.462;2022-07-06T10:55:47;2.28;;;0.77;;
12832;SDS011;6483;51.310;4.462;2022-07-06T10:58:34;1.23;;;0.70;;
12832;SDS011;6483;51.310;4.462;2022-07-06T11:01:11;4.03;;;0.75;;
12832;SDS011;6483;51.310;4.462;2022-07-06T11:06:08;2.60;;;0.75;;
12832;SDS011;6483;51.310;4.462;2022-07-06T11:08:54;2.95;;;0.90;;
12832;SDS011;6483;51.310;4.462;2022-07-06T11:14:00;5.60;;;1.13;;
12832;SDS011;6483;51.310;4.462;2022-07-06T11:16:33;4.03;;;1.00;;
12832;SDS011;6483;51.310;4.462;2022-07-06T11:19:25;0.95;;;0.73;;
12832;SDS011;6483;51.310;4.462;2022-07-06T11:21:52;0.73;;;0.60;;
12832;SDS011;6483;51.310;4.462;2022-07-06T11:24:29;0.90;;;0.73;;
12832;SDS011;6483;51.310;4.462;2022-07-06T11:26:57;0.93;;;0.73;;
12832;SDS011;6483;51.310;4.462;2022-07-06T11:29:25;2.22;;;0.98;;
12832;SDS011;6483;51.310;4.462;2022-07-06T11:31:53;1.73;;;1.17;;
12832;SDS011;6483;51.310;4.462;2022-07-06T11:34:25;3.58;;;1.27;;
12832;SDS011;6483;51.310;4.462;2022-07-06T11:36:59;2.55;;;1.38;;
12832;SDS011;6483;51.310;4.462;2022-07-06T11:39:52;2.90;;;1.40;;
12832;SDS011;6483;51.310;4.462;2022-07-06T11:42:17;2.88;;;1.25;;
12832;SDS011;6483;51.310;4.462;2022-07-06T11:44:43;2.90;;;1.00;;
12832;SDS011;6483;51.310;4.462;2022-07-06T11:47:13;7.00;;;1.35;;
12832;SDS011;6483;51.310;4.462;2022-07-06T11:49:40;3.63;;;1.13;;
12832;SDS011;6483;51.310;4.462;2022-07-06T11:52:07;2.33;;;1.15;;
12832;SDS011;6483;51.310;4.462;2022-07-06T11:54:36;5.80;;;1.63;;
12832;SDS011;6483;51.310;4.462;2022-07-06T11:57:02;4.85;;;1.00;;
12832;SDS011;6483;51.310;4.462;2022-07-06T11:59:33;4.63;;;1.67;;
12832;SDS011;6483;51.310;4.462;2022-07-06T12:02:06;3.13;;;0.90;;
12832;SDS011;6483;51.310;4.462;2022-07-06T12:04:40;4.60;;;1.10;;
12832;SDS011;6483;51.310;4.462;2022-07-06T12:07:16;2.67;;;1.20;;
12832;SDS011;6483;51.310;4.462;2022-07-06T12:09:43;1.38;;;0.90;;
12832;SDS011;6483;51.310;4.462;2022-07-06T12:12:10;5.55;;;1.70;;
12832;SDS011;6483;51.310;4.462;2022-07-06T12:14:38;3.38;;;1.20;;
12832;SDS011;6483;51.310;4.462;2022-07-06T12:17:08;2.90;;;1.10;;
12832;SDS011;6483;51.310;4.462;2022-07-06T12:19:39;6.63;;;1.10;;
12832;SDS011;6483;51.310;4.462;2022-07-06T12:22:06;4.13;;;0.98;;
12832;SDS011;6483;51.310;4.462;2022-07-06T12:24:33;8.00;;;1.52;;
12832;SDS011;6483;51.310;4.462;2022-07-06T12:27:13;4.47;;;1.20;;
12832;SDS011;6483;51.310;4.462;2022-07-06T12:29:43;2.80;;;1.00;;
12832;SDS011;6483;51.310;4.462;2022-07-06T12:32:16;2.80;;;1.10;;
12832;SDS011;6483;51.310;4.462;2022-07-06T12:34:43;5.47;;;1.50;;
12832;SDS011;6483;51.310;4.462;2022-07-06T12:37:10;5.18;;;1.25;;
12832;SDS011;6483;51.310;4.462;2022-07-06T12:39:42;3.63;;;1.40;;
12832;SDS011;6483;51.310;4.462;2022-07-06T12:42:15;5.97;;;1.35;;
12832;SDS011;6483;51.310;4.462;2022-07-06T12:44:49;2.13;;;1.20;;
12832;SDS011;6483;51.310;4.462;2022-07-06T12:47:17;4.28;;;1.65;;
12832;SDS011;6483;51.310;4.462;2022-07-06T12:49:44;3.38;;;1.75;;
12832;SDS011;6483;51.310;4.462;2022-07-06T12:54:42;2.97;;;0.80;;
12832;SDS011;6483;51.310;4.462;2022-07-06T12:57:16;3.88;;;1.00;;
12832;SDS011;6483;51.310;4.462;2022-07-06T13:02:26;3.75;;;1.30;;
12832;SDS011;6483;51.310;4.462;2022-07-06T13:07:24;6.32;;;1.73;;
12832;SDS011;6483;51.310;4.462;2022-07-06T13:09:54;5.75;;;1.60;;
12832;SDS011;6483;51.310;4.462;2022-07-06T13:12:27;2.33;;;1.00;;
12832;SDS011;6483;51.310;4.462;2022-07-06T13:14:58;4.18;;;1.80;;
12832;SDS011;6483;51.310;4.462;2022-07-06T13:17:24;3.72;;;1.50;;
12832;SDS011;6483;51.310;4.462;2022-07-06T13:19:53;6.65;;;1.33;;
12832;SDS011;6483;51.310;4.462;2022-07-06T13:22:19;6.70;;;1.60;;
12832;SDS011;6483;51.310;4.462;2022-07-06T13:24:45;5.90;;;1.75;;
12832;SDS011;6483;51.310;4.462;2022-07-06T13:27:11;4.85;;;1.30;;
12832;SDS011;6483;51.310;4.462;2022-07-06T13:29:41;3.17;;;1.67;;
12832;SDS011;6483;51.310;4.462;2022-07-06T13:32:07;2.33;;;2.10;;
12832;SDS011;6483;51.310;4.462;2022-07-06T13:34:37;4.72;;;1.73;;
12832;SDS011;6483;51.310;4.462;2022-07-06T13:37:03;4.30;;;1.88;;
12832;SDS011;6483;51.310;4.462;2022-07-06T13:39:29;3.80;;;1.83;;
12832;SDS011;6483;51.310;4.462;2022-07-06T13:41:58;2.95;;;1.42;;
12832;SDS011;6483;51.310;4.462;2022-07-06T13:44:24;2.90;;;2.00;;
12832;SDS011;6483;51.310;4.462;2022-07-06T13:46:50;3.72;;;1.52;;
12832;SDS011;6483;51.310;4.462;2022-07-06T13:49:17;4.10;;;2.00;;
12832;SDS011;6483;51.310;4.462;2022-07-06T13:51:43;3.30;;;1.90;;
12832;SDS011;6483;51.310;4.462;2022-07-06T13:54:09;3.88;;;1.90;;
12832;SDS011;6483;51.310;4.462;2022-07-06T13:56:39;4.25;;;1.55;;
12832;SDS011;6483;51.310;4.462;2022-07-06T13:59:05;6.35;;;1.80;;
12832;SDS011;6483;51.310;4.462;2022-07-06T14:01:31;5.95;;;2.08;;
12832;SDS011;6483;51.310;4.462;2022-07-06T14:03:57;4.60;;;2.35;;
12832;SDS011;6483;51.310;4.462;2022-07-06T14:06:23;6.20;;;2.33;;
12832;SDS011;6483;51.310;4.462;2022-07-06T14:08:49;3.70;;;1.77;;
12832;SDS011;6483;51.310;4.462;2022-07-06T14:11:16;3.28;;;1.95;;
12832;SDS011;6483;51.310;4.462;2022-07-06T14:13:42;4.95;;;2.00;;
12832;SDS011;6483;51.310;4.462;2022-07-06T14:16:09;4.63;;;1.60;;
12832;SDS011;6483;51.310;4.462;2022-07-06T14:18:35;6.07;;;2.13;;
12832;SDS011;6483;51.310;4.462;2022-07-06T14:21:01;3.80;;;1.75;;
12832;SDS011;6483;51.310;4.462;2022-07-06T14:23:28;4.88;;;1.92;;
12832;SDS011;6483;51.310;4.462;2022-07-06T14:25:55;8.18;;;1.95;;
12832;SDS011;6483;51.310;4.462;2022-07-06T14:28:21;3.17;;;1.90;;
12832;SDS011;6483;51.310;4.462;2022-07-06T14:30:47;4.75;;;2.13;;
12832;SDS011;6483;51.310;4.462;2022-07-06T14:33:13;3.33;;;1.85;;
12832;SDS011;6483;51.310;4.462;2022-07-06T14:35:43;5.68;;;2.50;;
12832;SDS011;6483;51.310;4.462;2022-07-06T14:38:14;11.75;;;2.28;;
12832;SDS011;6483;51.310;4.462;2022-07-06T14:40:40;5.50;;;2.50;;
12832;SDS011;6483;51.310;4.462;2022-07-06T14:43:06;3.28;;;2.10;;
12832;SDS011;6483;51.310;4.462;2022-07-06T14:45:32;5.43;;;2.08;;
12832;SDS011;6483;51.310;4.462;2022-07-06T14:47:58;6.63;;;3.00;;
12832;SDS011;6483;51.310;4.462;2022-07-06T14:50:28;4.82;;;2.35;;
12832;SDS011;6483;51.310;4.462;2022-07-06T14:52:54;7.45;;;2.97;;
12832;SDS011;6483;51.310;4.462;2022-07-06T14:55:22;3.50;;;1.90;;
12832;SDS011;6483;51.310;4.462;2022-07-06T14:57:48;4.07;;;2.33;;
12832;SDS011;6483;51.310;4.462;2022-07-06T15:00:15;5.13;;;1.92;;
12832;SDS011;6483;51.310;4.462;2022-07-06T15:02:44;3.70;;;1.63;;
12832;SDS011;6483;51.310;4.462;2022-07-06T15:05:10;9.93;;;2.50;;
12832;SDS011;6483;51.310;4.462;2022-07-06T15:07:38;4.00;;;1.88;;
12832;SDS011;6483;51.310;4.462;2022-07-06T15:10:04;3.10;;;1.75;;
12832;SDS011;6483;51.310;4.462;2022-07-06T15:12:36;2.65;;;1.73;;
12832;SDS011;6483;51.310;4.462;2022-07-06T15:15:03;4.90;;;1.90;;
12832;SDS011;6483;51.310;4.462;2022-07-06T15:17:29;4.22;;;2.25;;
12832;SDS011;6483;51.310;4.462;2022-07-06T15:19:56;3.67;;;2.00;;
12832;SDS011;6483;51.310;4.462;2022-07-06T15:22:22;6.10;;;1.75;;
12832;SDS011;6483;51.310;4.462;2022-07-06T15:24:48;4.95;;;2.38;;